Truthville, New York
Current Conditions -  °F | °C
As of 1:13 AM on Thursday 23 Oct 2014 (Local Time) from KGFL Reporting Station
Overcast Overcast  
Wind Chill: 11°   Ceiling: 2900
Heat Index: 11°   Visibility: 10mi
Dew Point:   Wind: 17mph
Humidity: 66%   Direction: 10°N
Pressure: 29.94"   Gusts: NA
Location:  43.3389°N, 73.3194°W
Report Text: KGFL 230513Z AUTO 01015KT 10SM OVC029 11/05 A2994 RMK AO2 T01110050
Loading
Personal Weather Stations






























Interactive Weather Map
Tropical Storm Tracking
New forecast layout! Learn more

10-Day Weather Forecast

Advertisements
Track Severe Weather on mobile